TimeCDT,TemperatureF,Dew PointF,Humidity,Sea Level PressureIn,VisibilityMPH,Wind Direction,Wind SpeedMPH,Gust SpeedMPH,PrecipitationIn,Events,Conditions,WindDirDegrees,DateUTC
12:15 AM,33.1,25.2,73,29.97,7.0,West,3.5,-,N/A,,Mostly Cloudy,260,2012-11-01 05:15:00
12:35 AM,33.6,25.7,73,29.97,7.0,WSW,4.6,-,N/A,,Mostly Cloudy,250,2012-11-01 05:35:00
12:55 AM,34.7,25.9,70,29.96,7.0,WSW,4.6,-,N/A,,Mostly Cloudy,250,2012-11-01 05:55:00
1:15 AM,35.4,26.4,70,29.96,7.0,WSW,4.6,-,N/A,,Mostly Cloudy,240,2012-11-01 06:15:00
1:35 AM,34.3,26.6,73,29.95,7.0,WSW,4.6,-,N/A,,Mostly Cloudy,240,2012-11-01 06:35:00
1:55 AM,35.2,27.0,72,29.95,7.0,WSW,8.1,-,N/A,,Scattered Clouds,240,2012-11-01 06:55:00
2:15 AM,36.7,27.9,70,29.95,7.0,WSW,9.2,-,N/A,,Mostly Cloudy,240,2012-11-01 07:15:00
2:35 AM,37.8,29.1,71,29.95,7.0,WSW,8.1,-,N/A,,Overcast,250,2012-11-01 07:35:00
2:55 AM,39.2,30.0,70,29.94,7.0,WSW,8.1,-,N/A,,Overcast,250,2012-11-01 07:55:00
3:15 AM,39.6,30.2,69,29.94,7.0,WSW,9.2,-,N/A,,Overcast,250,2012-11-01 08:15:00
3:35 AM,40.1,30.9,70,29.94,7.0,West,8.1,-,N/A,,Overcast,260,2012-11-01 08:35:00
3:55 AM,40.1,31.1,70,29.94,7.0,West,5.8,-,N/A,,Overcast,260,2012-11-01 08:55:00
4:15 AM,40.1,31.6,72,29.94,7.0,West,6.9,-,N/A,,Overcast,260,2012-11-01 09:15:00
4:35 AM,41.0,31.8,70,29.93,7.0,West,6.9,-,N/A,,Overcast,260,2012-11-01 09:35:00
4:55 AM,41.5,32.0,69,29.94,7.0,West,9.2,-,N/A,,Overcast,260,2012-11-01 09:55:00
5:15 AM,41.4,32.0,69,29.93,7.0,West,8.1,-,N/A,,Overcast,260,2012-11-01 10:15:00
5:35 AM,41.0,32.7,72,29.93,7.0,WSW,8.1,-,N/A,,Overcast,250,2012-11-01 10:35:00
5:55 AM,41.4,33.1,72,29.93,7.0,WSW,8.1,-,N/A,,Overcast,250,2012-11-01 10:55:00
6:15 AM,42.4,33.3,70,29.94,7.0,West,8.1,-,N/A,,Overcast,270,2012-11-01 11:15:00
6:35 AM,41.7,33.4,72,29.93,5.0,West,6.9,-,N/A,,Haze,260,2012-11-01 11:35:00
6:55 AM,41.4,33.8,74,29.93,7.0,West,9.2,-,N/A,,Overcast,270,2012-11-01 11:55:00
7:15 AM,41.4,34.0,75,29.93,7.0,West,8.1,-,N/A,,Overcast,280,2012-11-01 12:15:00
7:35 AM,41.0,34.0,76,29.93,7.0,WNW,6.9,-,N/A,,Overcast,300,2012-11-01 12:35:00
7:55 AM,40.5,34.0,78,29.93,5.0,NW,8.1,-,N/A,,Haze,310,2012-11-01 12:55:00
8:15 AM,40.5,34.2,78,29.93,5.0,WNW,8.1,-,N/A,,Haze,300,2012-11-01 13:15:00
8:35 AM,41.0,34.7,78,29.94,4.0,WNW,8.1,-,N/A,,Haze,290,2012-11-01 13:35:00
8:55 AM,42.4,35.1,75,29.95,5.0,NW,11.5,-,N/A,,Haze,320,2012-11-01 13:55:00
9:15 AM,43.7,35.1,72,29.96,5.0,NW,15.0,-,N/A,,Haze,320,2012-11-01 14:15:00
9:35 AM,44.8,35.1,69,29.96,5.0,NNW,17.3,-,N/A,,Haze,330,2012-11-01 14:35:00
9:55 AM,44.6,34.7,68,29.95,5.0,NNW,15.0,-,N/A,,Haze,330,2012-11-01 14:55:00
10:15 AM,45.5,34.5,65,29.96,5.0,NNW,16.1,-,N/A,,Haze,340,2012-11-01 15:15:00
10:35 AM,46.6,34.9,64,29.96,5.0,NNW,13.8,-,N/A,,Haze,340,2012-11-01 15:35:00
10:55 AM,47.5,34.9,62,29.97,7.0,NNW,12.7,-,N/A,,Clear,340,2012-11-01 15:55:00
11:15 AM,48.7,35.1,59,29.97,5.0,NNW,12.7,-,N/A,,Haze,330,2012-11-01 16:15:00
11:35 AM,49.1,34.5,57,29.98,7.0,North,16.1,23.0,N/A,,Clear,350,2012-11-01 16:35:00
11:55 AM,49.8,34.2,55,29.97,5.0,NNW,15.0,-,N/A,,Haze,340,2012-11-01 16:55:00
12:15 PM,50.5,33.1,51,29.96,4.0,North,13.8,-,N/A,,Haze,350,2012-11-01 17:15:00
12:35 PM,51.8,34.5,52,29.96,5.0,NNW,16.1,23.0,N/A,,Haze,340,2012-11-01 17:35:00
12:55 PM,52.0,34.5,51,29.97,5.0,NNW,17.3,24.2,N/A,,Haze,330,2012-11-01 17:55:00
1:15 PM,52.5,34.7,51,29.95,5.0,North,13.8,19.6,N/A,,Haze,350,2012-11-01 18:15:00
1:35 PM,52.7,34.5,50,29.95,7.0,NNW,15.0,19.6,N/A,,Clear,330,2012-11-01 18:35:00
1:55 PM,52.7,34.7,50,29.95,7.0,NW,16.1,20.7,N/A,,Clear,320,2012-11-01 18:55:00
2:15 PM,52.3,34.5,51,29.94,5.0,NNW,18.4,23.0,N/A,,Haze,340,2012-11-01 19:15:00
2:35 PM,52.2,33.6,49,29.94,7.0,NNW,16.1,19.6,N/A,,Clear,330,2012-11-01 19:35:00
2:55 PM,52.3,33.8,49,29.94,7.0,NW,17.3,21.9,N/A,,Clear,320,2012-11-01 19:55:00
3:15 PM,52.0,32.2,47,29.93,5.0,NW,15.0,20.7,N/A,,Haze,320,2012-11-01 20:15:00
3:35 PM,52.0,32.2,47,29.93,7.0,NNW,15.0,19.6,N/A,,Clear,330,2012-11-01 20:35:00
3:55 PM,52.0,31.1,45,29.94,7.0,NW,16.1,-,N/A,,Clear,310,2012-11-01 20:55:00
4:15 PM,51.8,31.1,45,29.93,7.0,NNW,16.1,-,N/A,,Clear,340,2012-11-01 21:15:00
4:35 PM,51.4,29.7,43,29.94,5.0,NNW,13.8,21.9,N/A,,Haze,330,2012-11-01 21:35:00
4:55 PM,51.3,30.6,45,29.94,7.0,NNW,13.8,-,N/A,,Clear,330,2012-11-01 21:55:00
5:15 PM,50.0,28.2,43,29.94,7.0,NW,16.1,-,N/A,,Clear,320,2012-11-01 22:15:00
5:35 PM,48.4,28.8,47,29.94,7.0,NNW,13.8,17.3,N/A,,Clear,330,2012-11-01 22:35:00
5:55 PM,46.9,29.3,50,29.94,7.0,NNW,11.5,-,N/A,,Clear,330,2012-11-01 22:55:00
6:15 PM,44.8,29.5,55,29.95,7.0,NW,8.1,-,N/A,,Clear,320,2012-11-01 23:15:00
6:35 PM,41.9,29.1,61,29.95,10.0,NNW,8.1,-,N/A,,Clear,330,2012-11-01 23:35:00
6:55 PM,41.4,29.8,64,29.95,7.0,NNW,10.4,-,N/A,,Clear,340,2012-11-01 23:55:00
7:15 PM,41.2,29.3,63,29.96,10.0,NNW,9.2,-,N/A,,Clear,340,2012-11-02 00:15:00
7:35 PM,39.7,28.8,65,29.97,7.0,NNW,8.1,-,N/A,,Clear,340,2012-11-02 00:35:00
7:55 PM,37.8,28.2,68,29.97,7.0,North,8.1,-,N/A,,Clear,350,2012-11-02 00:55:00
8:15 PM,38.3,28.2,67,29.97,7.0,North,10.4,-,N/A,,Clear,350,2012-11-02 01:15:00
8:35 PM,37.2,27.5,68,29.97,7.0,NNW,6.9,-,N/A,,Clear,330,2012-11-02 01:35:00
8:55 PM,35.4,26.8,71,29.98,7.0,NNW,8.1,-,N/A,,Clear,330,2012-11-02 01:55:00
9:15 PM,32.4,25.5,76,29.99,7.0,NNW,6.9,-,N/A,,Clear,330,2012-11-02 02:15:00
9:35 PM,32.2,26.2,79,29.99,7.0,North,4.6,-,N/A,,Clear,350,2012-11-02 02:35:00
9:55 PM,32.0,25.7,78,30.00,10.0,NNW,6.9,-,N/A,,Clear,340,2012-11-02 02:55:00
10:15 PM,33.8,26.6,75,30.00,7.0,North,3.5,-,N/A,,Clear,360,2012-11-02 03:15:00
10:35 PM,33.3,26.1,75,30.00,7.0,Calm,Calm,-,N/A,,Clear,0,2012-11-02 03:35:00
10:55 PM,32.0,25.3,76,30.01,7.0,NW,4.6,-,N/A,,Clear,310,2012-11-02 03:55:00
11:15 PM,30.9,24.6,77,30.02,10.0,NW,5.8,-,N/A,,Clear,320,2012-11-02 04:15:00
11:35 PM,29.7,24.3,80,30.02,10.0,NNW,4.6,-,N/A,,Clear,330,2012-11-02 04:35:00
11:55 PM,29.7,24.6,81,30.02,10.0,NW,3.5,-,N/A,,Clear,320,2012-11-02 04:55:00